CBN4 weather

Masset Seaplane Base
British Columbia, Canada

Public forecast

Using degrees Celsius for public forecast. Weather courtesy of forecast.io.

Closest aviation weather report (METAR) to Masset Seaplane Base

Report is more than 6 hours old.

Closest report is Masset Airport, 1.1 nm (2.0 km) NE. Retrieved 2020/04/05 01:00 UTC (9 hours ago):

CZMT 050100Z 33009KT 15SM BKN030 04/M00 A2992 RMK SC7 LAST STFD OBS/NEXT 051400 UTC SLP132

Closest aviation forecast (TAF) to Masset Seaplane Base

Forecast is more than 12 hours old.

Closest forecast is Masset Airport, 1.1 nm (2.0 km) NE. Retrieved 2020/04/04 19:00 UTC (15 hours ago):

TAF CZMT 041842Z 0419/0501 35006KT P6SM BKN030 TEMPO 0419/0422 5SM -SHRASN FEW008 BKN030 FM042200 32010KT P6SM BKN030 TEMPO 0422/0501 SCT030 RMK NXT FCST WILL BE ISSUED AT 051515Z